Time;durP1;ratioP1;P1;durP2;ratioP2;P2;SDS_P1;SDS_P2;PMS_P1;PMS_P2;Temp;Humidity;BMP_temperature;BMP_pressure;BME280_temperature;BME280_humidity;BME280_pressure;Samples;Min_cycle;Max_cycle;Signal;HPM_P1;HPM_P2
2022/03/30 00:00:27;;;;;;;25.20;15.40;;;;;;;7.08;44.97;100008.63;107818;1244;70002;-67
2022/03/30 00:03:04;;;;;;;28.10;15.30;;;;;;;6.99;44.64;100005.25;107632;1247;69375;-67
2022/03/30 00:05:34;;;;;;;26.70;15.70;;;;;;;6.90;45.87;100002.23;107812;1244;71081;-64
2022/03/30 00:08:04;;;;;;;30.50;16.00;;;;;;;6.84;47.41;100004.88;107693;1245;59520;-68
2022/03/30 00:10:35;;;;;;;26.40;15.50;;;;;;;6.79;47.00;100004.05;107925;1244;59928;-68
2022/03/30 00:13:04;;;;;;;29.20;16.30;;;;;;;6.73;45.95;100005.50;107771;1247;74117;-69
2022/03/30 00:15:34;;;;;;;23.10;15.50;;;;;;;6.64;45.05;100010.07;108010;1244;70874;-67
2022/03/30 00:18:03;;;;;;;24.60;16.10;;;;;;;6.54;47.14;100016.77;108004;1244;69093;-72
2022/03/30 00:20:33;;;;;;;32.20;18.00;;;;;;;6.48;46.26;100022.20;107935;1247;71991;-67
2022/03/30 00:23:02;;;;;;;32.30;17.20;;;;;;;6.45;47.47;100021.34;108114;1244;59726;-67
2022/03/30 00:25:32;;;;;;;26.10;14.60;;;;;;;6.46;47.54;100021.65;107806;1246;59318;-68
2022/03/30 00:28:02;;;;;;;26.50;15.30;;;;;;;6.45;48.55;100027.40;108002;1245;73581;-70
2022/03/30 00:30:31;;;;;;;25.80;15.40;;;;;;;6.44;48.17;100031.60;108101;1244;69896;-67
2022/03/30 00:33:00;;;;;;;22.60;14.10;;;;;;;6.40;49.16;100035.52;107897;1244;69240;-70
2022/03/30 00:35:29;;;;;;;26.20;17.30;;;;;;;6.37;47.98;100036.59;107585;1246;72266;-70
2022/03/30 00:37:59;;;;;;;28.30;15.90;;;;;;;6.36;49.36;100030.45;107901;1244;61556;-68
2022/03/30 00:40:28;;;;;;;24.50;15.80;;;;;;;6.36;49.57;100027.64;107922;1244;62050;-68
2022/03/30 00:42:57;;;;;;;26.00;14.90;;;;;;;6.31;50.21;100032.45;108000;1244;74262;-68
2022/03/30 00:45:26;;;;;;;35.80;21.70;;;;;;;6.26;49.61;100030.54;108226;1243;73145;-68
2022/03/30 00:47:55;;;;;;;32.50;17.80;;;;;;;6.25;49.03;100031.52;108268;1244;69066;-67
2022/03/30 00:50:24;;;;;;;40.30;19.70;;;;;;;6.25;49.46;100034.41;108192;1244;71495;-72
2022/03/30 00:52:56;;;;;;;30.90;19.70;;;;;;;6.27;49.16;100032.25;108031;1244;59856;-65
2022/03/30 00:55:26;;;;;;;31.70;18.40;;;;;;;6.26;48.80;100029.87;107837;1244;59620;-67
2022/03/30 00:57:57;;;;;;;34.20;18.40;;;;;;;6.25;49.31;100028.35;107852;1244;72811;-67
2022/03/30 01:00:27;;;;;;;29.60;16.80;;;;;;;6.24;49.69;100032.06;107967;1244;71275;-70
2022/03/30 01:02:56;;;;;;;32.10;18.00;;;;;;;6.24;49.96;100030.20;108093;1244;69626;-68
2022/03/30 01:05:25;;;;;;;31.70;17.50;;;;;;;6.23;50.18;100033.56;107941;1245;72369;-67
2022/03/30 01:07:59;;;;;;;25.70;16.70;;;;;;;6.20;49.67;100033.23;108537;1244;58889;-69
2022/03/30 01:10:28;;;;;;;26.80;16.20;;;;;;;6.20;50.30;100033.05;108121;1244;59700;-68
2022/03/30 01:13:00;;;;;;;31.50;17.30;;;;;;;6.20;50.69;100025.58;108441;1244;73344;-67
2022/03/30 01:15:30;;;;;;;31.90;17.70;;;;;;;6.19;50.69;100020.31;108070;1244;71422;-66
2022/03/30 01:17:58;;;;;;;30.30;17.50;;;;;;;6.17;50.45;100018.58;108003;1244;71457;-69
2022/03/30 01:20:29;;;;;;;26.10;16.60;;;;;;;6.14;50.49;100016.98;107864;1244;75095;-67
2022/03/30 01:23:02;;;;;;;30.50;17.10;;;;;;;6.09;50.47;100016.06;107778;1244;61548;-67
2022/03/30 01:25:32;;;;;;;28.90;16.90;;;;;;;6.04;50.47;100019.20;108052;1244;59518;-67
2022/03/30 01:28:02;;;;;;;27.80;16.90;;;;;;;5.98;50.61;100020.66;108105;1244;72791;-67
2022/03/30 01:33:20;;;;;;;27.40;15.60;;;;;;;5.88;50.01;100021.05;108085;1244;68291;-67
2022/03/30 01:35:49;;;;;;;24.80;15.40;;;;;;;5.84;50.49;100022.31;107901;1247;71237;-65
2022/03/30 01:38:18;;;;;;;23.90;15.40;;;;;;;5.79;50.49;100018.20;108051;1244;59616;-67
2022/03/30 01:40:47;;;;;;;26.40;15.70;;;;;;;5.69;52.21;100016.91;108047;1244;59611;-68
2022/03/30 01:43:16;;;;;;;27.00;15.80;;;;;;;5.64;52.13;100019.83;108026;1246;72854;-68
2022/03/30 01:45:45;;;;;;;26.60;15.80;;;;;;;5.60;52.43;100016.63;108089;1244;68554;-68
2022/03/30 01:48:14;;;;;;;27.70;16.20;;;;;;;5.58;52.79;100019.16;107925;1244;69433;-63
2022/03/30 01:50:43;;;;;;;25.90;15.60;;;;;;;5.57;52.53;100019.39;108053;1244;72213;-66
2022/03/30 01:53:13;;;;;;;27.40;16.30;;;;;;;5.54;52.69;100020.91;107960;1244;60462;-66
2022/03/30 01:55:43;;;;;;;26.80;15.80;;;;;;;5.51;52.73;100020.27;108209;1244;62476;-68
2022/03/30 01:58:12;;;;;;;26.00;16.10;;;;;;;5.46;53.03;100019.75;108211;1244;75887;-68
2022/03/30 02:00:41;;;;;;;29.20;15.40;;;;;;;5.43;53.17;100015.23;108178;1244;70878;-70
2022/03/30 02:03:12;;;;;;;29.90;15.20;;;;;;;5.40;51.67;100015.95;108173;1244;69118;-65
2022/03/30 02:05:41;;;;;;;27.90;16.60;;;;;;;5.38;52.39;100022.66;108134;1244;71958;-66
2022/03/30 02:08:10;;;;;;;31.00;16.50;;;;;;;5.32;51.53;100023.01;107896;1244;59659;-66
2022/03/30 02:10:39;;;;;;;34.80;17.60;;;;;;;5.24;53.50;100018.67;108151;1244;61652;-71
2022/03/30 02:13:09;;;;;;;27.20;16.90;;;;;;;5.25;53.96;100017.77;108182;1244;75181;-65
2022/03/30 02:15:39;;;;;;;27.70;16.30;;;;;;;5.26;53.26;100021.09;108239;1244;72976;-70
2022/03/30 02:18:09;;;;;;;27.80;16.20;;;;;;;5.26;51.29;100024.91;107940;1244;69890;-67
2022/03/30 02:20:40;;;;;;;28.10;17.10;;;;;;;5.25;50.57;100021.86;108157;1244;74428;-68
2022/03/30 02:23:09;;;;;;;27.70;16.90;;;;;;;5.26;51.58;100023.73;108201;1243;59643;-68
2022/03/30 02:25:39;;;;;;;24.90;16.40;;;;;;;5.24;53.02;100021.11;108197;1244;61313;-67
2022/03/30 02:28:08;;;;;;;26.00;15.30;;;;;;;5.24;53.95;100019.56;108089;1244;74877;-67
2022/03/30 02:30:37;;;;;;;29.40;17.60;;;;;;;5.23;53.93;100020.61;108110;1247;71234;-67
2022/03/30 02:33:06;;;;;;;28.10;17.50;;;;;;;5.24;53.07;100024.53;108180;1244;70868;-72
2022/03/30 02:35:36;;;;;;;27.60;17.50;;;;;;;5.27;53.53;100023.67;108185;1244;73671;-66
2022/03/30 02:38:06;;;;;;;31.80;18.50;;;;;;;5.32;53.54;100020.06;108236;1244;61588;-66
2022/03/30 02:40:34;;;;;;;30.60;18.00;;;;;;;5.37;53.24;100022.56;107964;1244;60894;-68
2022/03/30 02:43:04;;;;;;;29.90;18.00;;;;;;;5.40;53.52;100027.68;108210;1244;74932;-66
2022/03/30 02:45:34;;;;;;;32.00;18.20;;;;;;;5.41;53.38;100029.73;108130;1244;71211;-67
2022/03/30 02:48:19;;;;;;;36.20;19.00;;;;;;;5.41;52.61;100029.38;108071;1243;69625;-66
2022/03/30 02:50:55;;;;;;;31.70;17.50;;;;;;;5.43;51.10;100033.54;107888;1244;73357;-69
2022/03/30 02:53:25;;;;;;;29.20;15.60;;;;;;;5.42;50.80;100038.64;108002;1244;59715;-70
2022/03/30 02:55:54;;;;;;;31.60;17.40;;;;;;;5.35;50.90;100039.38;107988;1243;61250;-72
2022/03/30 02:58:24;;;;;;;34.30;17.50;;;;;;;5.22;51.12;100036.54;107964;1244;75737;-74
2022/03/30 03:00:54;;;;;;;35.70;19.10;;;;;;;5.11;51.24;100037.61;107950;1243;72021;-66
2022/03/30 03:03:24;;;;;;;33.00;20.20;;;;;;;5.02;51.36;100038.11;108061;1244;70542;-67
2022/03/30 03:05:53;;;;;;;33.70;19.70;;;;;;;5.04;52.30;100035.04;108001;1244;74406;-66
2022/03/30 03:08:23;;;;;;;37.70;19.20;;;;;;;5.12;51.45;100035.78;107898;1244;61976;-67
2022/03/30 03:10:52;;;;;;;28.10;18.20;;;;;;;5.14;51.37;100029.79;107946;1244;60792;-67
2022/03/30 03:13:21;;;;;;;35.30;20.00;;;;;;;5.18;52.25;100036.84;108004;1244;72728;-66
2022/03/30 03:15:51;;;;;;;34.70;19.80;;;;;;;5.22;52.98;100035.37;107941;1244;71663;-71
2022/03/30 03:18:20;;;;;;;34.10;20.00;;;;;;;5.29;52.57;100035.80;108003;1244;68495;-68
2022/03/30 03:20:50;;;;;;;41.10;20.20;;;;;;;5.37;52.18;100038.59;107928;1244;72429;-67
2022/03/30 03:23:19;;;;;;;42.60;22.00;;;;;;;5.40;52.16;100038.27;107881;1244;60880;-68
2022/03/30 03:25:49;;;;;;;38.50;20.80;;;;;;;5.41;52.47;100037.29;107941;1246;61187;-67
2022/03/30 03:28:18;;;;;;;35.10;21.50;;;;;;;5.45;52.58;100044.13;107850;1244;75583;-69
2022/03/30 03:30:47;;;;;;;42.90;21.80;;;;;;;5.47;52.13;100049.71;107800;1244;72019;-68
2022/03/30 03:33:17;;;;;;;35.70;21.10;;;;;;;5.45;52.65;100052.94;107864;1244;69118;-68
2022/03/30 03:35:47;;;;;;;41.40;21.00;;;;;;;5.43;52.51;100055.83;107888;1244;73964;-67
2022/03/30 03:38:16;;;;;;;36.60;21.00;;;;;;;5.37;53.47;100054.62;107871;1244;59674;-66
2022/03/30 03:40:45;;;;;;;40.60;21.50;;;;;;;5.31;53.75;100051.86;107972;1244;59083;-70
2022/03/30 03:43:14;;;;;;;38.60;21.60;;;;;;;5.22;54.22;100041.89;107890;1244;72913;-66
2022/03/30 03:45:43;;;;;;;36.70;21.10;;;;;;;5.27;54.29;100044.70;107946;1244;69341;-69
2022/03/30 03:48:12;;;;;;;38.20;21.30;;;;;;;5.27;54.57;100041.95;108037;1244;70532;-70
2022/03/30 03:50:43;;;;;;;36.80;20.70;;;;;;;5.27;54.65;100041.96;107903;1245;72940;-69
2022/03/30 03:53:12;;;;;;;36.40;20.70;;;;;;;5.28;54.35;100040.38;107961;1244;60013;-68
2022/03/30 03:55:41;;;;;;;39.90;22.30;;;;;;;5.23;53.33;100038.39;107846;1247;60274;-71
2022/03/30 03:58:12;;;;;;;38.30;21.60;;;;;;;5.16;54.20;100036.10;108109;1244;72177;-67
2022/03/30 04:00:41;;;;;;;36.10;21.20;;;;;;;5.10;55.02;100041.45;108061;1244;72570;-72
2022/03/30 04:03:10;;;;;;;38.60;21.10;;;;;;;5.09;54.49;100033.59;108067;1244;68109;-73
2022/03/30 04:05:41;;;;;;;42.90;21.40;;;;;;;5.08;55.41;100037.92;108051;1244;73071;-74
2022/03/30 04:08:10;;;;;;;34.10;18.90;;;;;;;5.09;55.45;100044.92;108071;1244;59578;-70
2022/03/30 04:10:39;;;;;;;33.20;17.90;;;;;;;5.09;53.82;100051.00;108083;1244;61563;-68
2022/03/30 04:13:09;;;;;;;38.20;18.60;;;;;;;4.97;54.13;100049.27;108007;1244;74049;-66
2022/03/30 04:15:40;;;;;;;39.10;20.00;;;;;;;4.84;56.97;100048.88;108118;1245;70706;-65
2022/03/30 04:18:09;;;;;;;34.00;18.90;;;;;;;4.79;57.32;100043.27;108086;1244;70083;-68
2022/03/30 04:20:43;;;;;;;39.10;20.70;;;;;;;4.76;57.63;100041.56;108033;1244;72673;-66
2022/03/30 04:23:12;;;;;;;38.50;21.00;;;;;;;4.81;57.79;100042.48;108049;1244;59544;-66
2022/03/30 04:25:41;;;;;;;39.30;21.20;;;;;;;4.88;57.61;100049.98;107904;1244;59748;-68
2022/03/30 04:28:10;;;;;;;39.10;21.90;;;;;;;4.97;57.14;100051.89;107725;1247;74475;-70
2022/03/30 04:30:39;;;;;;;44.80;21.70;;;;;;;5.04;56.98;100047.98;107720;1247;72584;-71
2022/03/30 04:33:09;;;;;;;43.20;21.80;;;;;;;5.16;57.38;100052.46;107695;1244;70822;-71
2022/03/30 04:35:39;;;;;;;41.40;19.90;;;;;;;5.25;55.10;100055.20;107937;1244;70921;-72
2022/03/30 04:38:09;;;;;;;34.00;18.30;;;;;;;5.30;55.07;100047.26;107869;1244;60442;-70
2022/03/30 04:40:38;;;;;;;37.00;17.90;;;;;;;5.38;54.56;100055.14;108087;1244;62095;-71
2022/03/30 04:43:07;;;;;;;38.50;19.20;;;;;;;5.44;55.50;100050.45;108101;1244;74314;-72
2022/03/30 04:45:37;;;;;;;38.00;20.90;;;;;;;5.51;56.02;100047.23;107804;1247;69971;-72
2022/03/30 04:48:07;;;;;;;41.70;20.60;;;;;;;5.61;55.87;100047.98;108055;1244;68704;-71
2022/03/30 04:50:37;;;;;;;43.90;21.20;;;;;;;5.75;55.98;100053.63;108336;1244;71923;-77
2022/03/30 04:53:06;;;;;;;42.20;21.30;;;;;;;5.87;56.26;100052.05;108673;1244;60450;-71
2022/03/30 04:55:36;;;;;;;40.00;23.20;;;;;;;6.03;57.12;100048.14;108019;1244;62020;-71
2022/03/30 04:58:06;;;;;;;39.50;23.20;;;;;;;6.20;56.78;100052.55;108017;1244;74566;-78
2022/03/30 05:00:36;;;;;;;45.30;23.30;;;;;;;6.40;55.71;100055.56;108165;1244;70053;-72
2022/03/30 05:03:05;;;;;;;47.20;23.60;;;;;;;6.53;54.63;100052.64;107892;1245;69900;-73
2022/03/30 05:05:35;;;;;;;39.80;22.10;;;;;;;6.64;53.95;100054.54;107969;1244;72905;-73
2022/03/30 05:08:06;;;;;;;44.20;23.00;;;;;;;6.74;52.87;100056.63;108100;1244;59921;-72
2022/03/30 05:10:36;;;;;;;42.00;21.80;;;;;;;6.83;52.54;100055.70;108219;1243;59530;-73
2022/03/30 05:13:05;;;;;;;41.60;22.20;;;;;;;6.90;52.40;100058.35;108376;1241;74670;-75
2022/03/30 05:15:34;;;;;;;48.00;22.50;;;;;;;7.01;52.39;100064.84;107676;1244;747083;-73
2022/03/30 05:18:06;;;;;;;46.70;21.90;;;;;;;7.11;52.07;100062.77;108458;1241;71079;-73
2022/03/30 05:20:35;;;;;;;45.70;23.90;;;;;;;7.24;51.55;100063.14;108639;1243;70635;-71
2022/03/30 05:23:05;;;;;;;43.60;23.10;;;;;;;7.35;51.54;100061.14;108588;1244;59094;-72
2022/03/30 05:25:34;;;;;;;49.00;23.10;;;;;;;7.46;51.66;100058.10;108218;1244;61804;-72
2022/03/30 05:28:05;;;;;;;38.90;22.90;;;;;;;7.56;51.08;100058.29;108084;1244;72433;-77
2022/03/30 05:30:42;;;;;;;41.60;21.90;;;;;;;7.65;50.56;100055.89;107982;1244;71923;-73
2022/03/30 05:33:16;;;;;;;46.20;23.00;;;;;;;7.72;50.33;100053.73;107723;1244;71928;-74
2022/03/30 05:35:48;;;;;;;49.10;23.30;;;;;;;7.78;50.19;100053.81;107987;1244;74544;-74
2022/03/30 05:38:20;;;;;;;40.10;22.20;;;;;;;7.89;50.25;100059.10;107979;1242;61330;-73
2022/03/30 05:40:53;;;;;;;50.20;23.60;;;;;;;7.97;50.12;100057.28;107958;1244;61353;-72
2022/03/30 05:43:28;;;;;;;48.90;24.10;;;;;;;8.05;49.72;100057.59;107851;1244;75248;-74
2022/03/30 05:45:59;;;;;;;49.60;25.80;;;;;;;8.13;49.43;100058.05;108167;1244;69935;-73
2022/03/30 05:48:34;;;;;;;52.00;25.50;;;;;;;8.14;49.42;100053.12;108046;1244;69431;-74
2022/03/30 05:51:10;;;;;;;43.40;24.40;;;;;;;8.16;49.52;100051.74;107565;1241;75481;-75
2022/03/30 05:53:51;;;;;;;42.30;24.10;;;;;;;8.23;49.15;100052.78;107518;1241;62078;-74
2022/03/30 05:59:27;;;;;;;47.70;23.30;;;;;;;8.52;48.87;100053.70;108098;1243;74975;-74
2022/03/30 06:01:59;;;;;;;52.10;23.80;;;;;;;8.63;48.59;100055.08;107656;1242;73826;-77
2022/03/30 06:04:41;;;;;;;44.60;23.30;;;;;;;8.73;48.62;100050.15;108295;1241;70955;-72
2022/03/30 06:07:15;;;;;;;49.30;24.00;;;;;;;8.86;48.17;100049.56;107706;1241;75923;-73
2022/03/30 06:09:49;;;;;;;44.50;23.30;;;;;;;8.93;48.10;100043.48;108001;1244;59674;-72
2022/03/30 06:12:25;;;;;;;48.70;24.50;;;;;;;9.06;47.79;100046.11;107644;1244;59541;-74
2022/03/30 06:15:00;;;;;;;56.50;25.30;;;;;;;9.18;48.13;100046.94;107955;1241;74334;-75
2022/03/30 06:17:46;;;;;;;52.40;25.20;;;;;;;9.30;47.60;100046.52;107781;1244;70883;-74
2022/03/30 06:20:27;;;;;;;51.30;24.80;;;;;;;9.27;47.59;100047.55;107719;1243;69886;-75
2022/03/30 06:23:05;;;;;;;42.50;24.90;;;;;;;9.45;47.26;100044.64;107900;1244;71658;-75
2022/03/30 06:25:40;;;;;;;44.80;26.40;;;;;;;9.58;47.07;100044.48;107813;1244;58986;-75
2022/03/30 06:28:15;;;;;;;47.90;23.90;;;;;;;9.71;46.73;100043.47;107829;1241;60999;-74
2022/03/30 06:30:47;;;;;;;45.70;24.20;;;;;;;9.82;46.59;100040.85;107606;1245;76308;-73
2022/03/30 06:33:15;;;;;;;46.00;25.20;;;;;;;9.93;46.52;100037.42;108119;1244;71812;-72
2022/03/30 06:35:44;;;;;;;42.80;23.80;;;;;;;10.05;46.42;100033.23;107942;1244;71357;-74
2022/03/30 06:38:14;;;;;;;40.10;23.30;;;;;;;10.16;46.21;100035.33;108193;1243;73392;-74
2022/03/30 06:40:47;;;;;;;43.40;23.20;;;;;;;10.28;46.07;100039.07;108194;1244;60626;-74
2022/03/30 06:43:16;;;;;;;39.20;22.00;;;;;;;10.35;45.88;100037.08;108042;1242;61356;-74
2022/03/30 06:45:46;;;;;;;47.20;24.10;;;;;;;10.51;44.89;100044.54;107997;1244;72246;-74
2022/03/30 06:48:15;;;;;;;35.40;23.80;;;;;;;10.63;44.61;100040.19;108078;1244;70639;-73
2022/03/30 06:50:44;;;;;;;37.10;22.70;;;;;;;10.71;44.62;100042.13;108092;1241;67888;-73
2022/03/30 06:53:13;;;;;;;40.80;22.70;;;;;;;10.86;44.88;100041.43;107929;1241;72943;-73
2022/03/30 06:55:43;;;;;;;42.20;25.50;;;;;;;10.93;44.04;100039.83;108080;1244;60581;-72
2022/03/30 06:58:12;;;;;;;48.90;25.50;;;;;;;10.95;44.35;100039.63;107876;1244;59533;-74
2022/03/30 07:00:58;;;;;;;43.20;25.90;;;;;;;10.96;43.89;100042.98;107968;1244;72277;-74
2022/03/30 07:03:35;;;;;;;51.60;25.70;;;;;;;11.02;44.02;100041.40;107724;1246;73788;-76
2022/03/30 07:06:11;;;;;;;49.70;27.00;;;;;;;11.17;43.75;100034.81;107988;1244;69247;-75
2022/03/30 07:11:37;;;;;;;49.90;27.00;;;;;;;11.34;43.40;100033.11;107871;1242;59797;-75
2022/03/30 07:14:11;;;;;;;53.40;27.40;;;;;;;11.07;43.59;99996.08;107885;1244;60491;-72
2022/03/30 07:16:47;;;;;;;53.40;29.10;;;;;;;11.33;43.48;100031.98;107568;1244;76289;-74
2022/03/30 07:19:18;;;;;;;52.90;30.30;;;;;;;11.43;43.57;100029.55;108119;1243;74220;-74
2022/03/30 07:21:50;;;;;;;55.00;31.00;;;;;;;11.53;43.46;100029.59;107719;1241;71275;-74
2022/03/30 07:24:24;;;;;;;55.80;32.40;;;;;;;11.56;43.37;100030.89;108163;1244;72937;-76
2022/03/30 07:26:58;;;;;;;51.10;30.20;;;;;;;11.76;43.34;100030.65;107692;1243;60714;-74
2022/03/30 07:29:34;;;;;;;53.50;30.40;;;;;;;12.06;42.78;100031.44;107885;1242;59647;-74
2022/03/30 07:32:06;;;;;;;52.90;31.90;;;;;;;12.37;42.25;100029.64;107916;1244;74603;-73
2022/03/30 07:34:36;;;;;;;54.50;30.20;;;;;;;12.62;42.03;100026.31;107767;1241;72278;-73
2022/03/30 07:37:05;;;;;;;50.10;30.00;;;;;;;12.75;41.68;100026.83;107899;1241;69482;-73
2022/03/30 07:39:36;;;;;;;50.60;30.90;;;;;;;13.01;41.34;100032.64;107884;1244;73977;-72
2022/03/30 07:42:05;;;;;;;57.00;32.30;;;;;;;12.98;40.93;100035.86;107983;1241;62399;-72
2022/03/30 07:44:35;;;;;;;46.80;28.50;;;;;;;13.18;40.70;100034.00;107727;1244;60863;-74
2022/03/30 07:47:05;;;;;;;42.90;27.40;;;;;;;13.44;40.54;100031.76;107821;1244;75671;-73
2022/03/30 07:49:34;;;;;;;39.80;24.80;;;;;;;13.58;40.17;100032.92;108245;1241;70933;-72
2022/03/30 07:52:04;;;;;;;41.70;25.20;;;;;;;13.74;39.41;100033.83;108204;1244;69415;-72
2022/03/30 07:54:33;;;;;;;40.40;24.90;;;;;;;13.90;39.74;100033.68;108182;1244;71973;-74
2022/03/30 07:57:03;;;;;;;40.50;24.60;;;;;;;14.12;39.34;100033.05;108112;1244;61345;-73
2022/03/30 07:59:32;;;;;;;40.60;24.00;;;;;;;14.05;38.95;100028.48;108236;1241;59333;-71
2022/03/30 08:02:02;;;;;;;42.50;26.10;;;;;;;14.30;38.83;100028.53;108011;1242;72822;-73
2022/03/30 08:04:31;;;;;;;41.90;24.90;;;;;;;14.45;38.50;100024.36;108334;1244;71540;-74
2022/03/30 08:07:01;;;;;;;41.50;24.70;;;;;;;14.61;38.27;100025.95;108176;1240;70519;-72
2022/03/30 08:09:30;;;;;;;39.00;23.80;;;;;;;14.49;38.39;100022.61;108097;1241;72632;-73
2022/03/30 08:11:59;;;;;;;38.80;22.80;;;;;;;14.75;38.45;100017.77;108124;1243;59736;-72
2022/03/30 08:14:28;;;;;;;38.90;23.00;;;;;;;15.13;38.40;100019.29;107990;1244;61327;-73
2022/03/30 08:16:57;;;;;;;39.90;23.20;;;;;;;15.27;37.41;100019.65;107924;1242;74550;-72
2022/03/30 08:19:26;;;;;;;33.30;21.50;;;;;;;15.50;37.16;100017.06;107902;1244;71641;-74
2022/03/30 08:24:46;;;;;;;34.40;21.70;;;;;;;15.83;36.85;100020.08;108163;1241;74733;-75
2022/03/30 08:27:18;;;;;;;50.70;28.00;;;;;;;16.08;36.86;100019.05;107834;1244;61605;-73
2022/03/30 08:29:48;;;;;;;41.80;27.10;;;;;;;16.32;36.36;100020.56;107959;1241;61764;-73
2022/03/30 08:32:18;;;;;;;39.20;20.90;;;;;;;16.53;36.36;100017.70;107737;1242;74830;-73
2022/03/30 08:34:50;;;;;;;39.80;21.30;;;;;;;16.71;36.44;100016.15;107843;1241;71801;-73
2022/03/30 08:37:21;;;;;;;37.90;21.00;;;;;;;16.43;35.80;100016.89;107947;1243;69695;-74
2022/03/30 08:39:53;;;;;;;31.60;19.40;;;;;;;16.61;36.06;100017.61;108043;1244;70889;-70
2022/03/30 08:42:22;;;;;;;32.90;19.80;;;;;;;16.80;35.27;100015.16;107912;1241;60056;-68
2022/03/30 08:44:51;;;;;;;29.50;19.70;;;;;;;17.09;35.68;100016.73;107624;1244;60132;-69
2022/03/30 08:47:20;;;;;;;34.80;20.80;;;;;;;17.26;35.11;100013.64;107648;1244;72788;-69
2022/03/30 08:49:51;;;;;;;32.30;19.90;;;;;;;17.42;34.73;100016.95;108652;1243;71836;-69
2022/03/30 08:52:20;;;;;;;35.60;21.50;;;;;;;17.65;33.63;100012.95;107938;1241;70348;-69
2022/03/30 08:54:50;;;;;;;38.20;22.00;;;;;;;17.88;34.27;100009.30;107991;1244;74011;-70
2022/03/30 08:57:20;;;;;;;33.70;21.30;;;;;;;18.03;33.31;100005.27;107787;1243;60944;-70
2022/03/30 09:00:05;;;;;;;38.60;22.60;;;;;;;18.01;32.72;99998.62;107595;1244;61105;-68
2022/03/30 09:02:43;;;;;;;38.50;20.80;;;;;;;18.27;33.46;99994.72;107745;1244;74935;-67
2022/03/30 09:05:25;;;;;;;38.20;21.40;;;;;;;18.41;33.02;99988.19;107965;1244;72600;-69
2022/03/30 09:08:09;;;;;;;35.60;21.80;;;;;;;18.41;31.86;99983.92;107910;1244;60890;-69
2022/03/30 09:10:40;;;;;;;35.30;22.00;;;;;;;18.35;31.79;99976.70;107819;1244;73065;-69
2022/03/30 09:13:11;;;;;;;38.90;21.80;;;;;;;18.24;31.77;99975.17;107785;1244;61266;-67
2022/03/30 09:15:42;;;;;;;40.60;22.50;;;;;;;18.18;32.02;99973.25;107832;1244;59486;-64
2022/03/30 09:18:14;;;;;;;35.20;22.30;;;;;;;18.52;32.41;99972.54;107648;1244;75347;-68
2022/03/30 09:20:48;;;;;;;34.00;21.60;;;;;;;18.75;32.04;99968.63;107957;1244;70720;-66
2022/03/30 09:23:26;;;;;;;36.30;22.80;;;;;;;18.93;31.52;99963.88;108094;1242;60353;-64
2022/03/30 09:25:57;;;;;;;35.00;21.80;;;;;;;19.17;31.88;99957.52;108161;1244;63238;-66
2022/03/30 09:28:26;;;;;;;34.80;22.00;;;;;;;19.45;31.32;99954.46;108137;1244;59600;-69
2022/03/30 09:30:56;;;;;;;36.10;22.00;;;;;;;19.70;29.90;99954.59;108183;1244;62304;-67
2022/03/30 09:33:25;;;;;;;39.90;24.00;;;;;;;19.81;29.49;99950.92;108084;1244;74125;-66
2022/03/30 09:35:54;;;;;;;35.80;22.70;;;;;;;19.66;28.53;99939.75;107815;1244;72629;-73
2022/03/30 09:38:25;;;;;;;31.70;20.90;;;;;;;19.85;28.15;99936.08;108274;1244;59647;-68
2022/03/30 09:41:04;;;;;;;27.20;18.60;;;;;;;20.08;28.83;99936.56;108083;1243;63249;-66
2022/03/30 09:43:34;;;;;;;36.50;19.80;;;;;;;20.22;27.26;99933.05;108050;1241;61194;-67
2022/03/30 09:46:11;;;;;;;36.40;20.10;;;;;;;20.27;26.96;99929.83;107774;1244;58502;-66
2022/03/30 09:48:50;;;;;;;30.40;19.10;;;;;;;20.28;26.88;99926.49;107652;1244;74453;-69
2022/03/30 09:51:23;;;;;;;32.90;19.00;;;;;;;20.30;26.64;99922.30;107930;1244;61273;-69
2022/03/30 09:53:53;;;;;;;30.50;20.60;;;;;;;20.13;26.95;99918.38;107737;1244;70515;-68
2022/03/30 09:56:24;;;;;;;25.90;17.90;;;;;;;20.36;26.41;99917.77;108008;1244;63609;-67
2022/03/30 09:59:05;;;;;;;28.10;17.90;;;;;;;20.38;26.13;99911.42;108117;1244;59602;-67
2022/03/30 10:01:34;;;;;;;33.80;18.50;;;;;;;20.56;25.60;99905.86;108126;1243;61952;-67
2022/03/30 10:04:05;;;;;;;31.10;20.10;;;;;;;20.50;25.84;99901.77;107886;1244;74899;-68
2022/03/30 10:06:40;;;;;;;24.80;18.10;;;;;;;20.32;25.69;99898.93;107862;1244;62163;-68
2022/03/30 10:09:16;;;;;;;28.60;17.60;;;;;;;20.68;25.63;99898.65;107820;1244;72753;-69
2022/03/30 10:11:46;;;;;;;27.90;17.60;;;;;;;20.96;24.41;99893.64;108196;1244;73750;-71
2022/03/30 10:14:15;;;;;;;27.30;17.20;;;;;;;21.02;23.23;99891.88;108166;1244;62039;-70
2022/03/30 10:16:45;;;;;;;27.10;17.90;;;;;;;21.11;23.33;99885.29;108218;1241;61782;-69
2022/03/30 10:19:16;;;;;;;24.90;17.80;;;;;;;21.27;22.98;99883.80;108186;1243;73166;-69
2022/03/30 10:22:10;;;;;;;26.70;16.60;;;;;;;21.27;22.80;99879.45;107892;1242;63488;-67
2022/03/30 10:25:23;;;;;;;25.20;16.60;;;;;;;21.47;22.47;99880.67;107889;1243;59932;-67
2022/03/30 10:28:25;;;;;;;24.00;17.20;;;;;;;21.48;22.56;99871.67;108233;1244;62465;-68
2022/03/30 10:30:57;;;;;;;23.20;16.60;;;;;;;21.53;22.76;99868.84;108264;1244;59545;-68
2022/03/30 10:33:41;;;;;;;26.40;16.20;;;;;;;21.70;23.41;99869.45;108145;1244;60656;-70
2022/03/30 10:36:32;;;;;;;26.50;17.00;;;;;;;22.32;21.79;99868.62;108147;1244;75406;-67
2022/03/30 10:39:15;;;;;;;28.00;17.30;;;;;;;22.54;21.19;99865.39;108208;1244;61476;-67
2022/03/30 10:42:11;;;;;;;24.30;16.40;;;;;;;22.35;21.57;99857.38;108111;1244;70839;-72
2022/03/30 10:44:59;;;;;;;29.10;16.40;;;;;;;22.60;21.51;99855.67;110084;1243;63646;-68
2022/03/30 10:47:29;;;;;;;22.70;16.80;;;;;;;23.22;20.46;99854.50;108020;1244;59590;-69
2022/03/30 10:50:02;;;;;;;27.20;16.30;;;;;;;23.47;20.32;99851.58;108159;1244;61813;-70
2022/03/30 10:52:41;;;;;;;22.30;15.90;;;;;;;23.52;20.28;99849.33;108194;1244;64388;-71
2022/03/30 10:55:13;;;;;;;21.40;14.50;;;;;;;23.62;20.28;99849.20;108098;1244;60871;-70
2022/03/30 10:58:01;;;;;;;27.90;15.20;;;;;;;23.67;19.86;99852.41;107833;1244;60027;-70
2022/03/30 11:00:31;;;;;;;23.80;15.80;;;;;;;23.93;20.05;99848.99;108010;1242;63301;-69
2022/03/30 11:03:21;;;;;;;19.90;14.00;;;;;;;24.11;19.72;99845.54;108079;1244;59564;-70
2022/03/30 11:06:06;;;;;;;23.60;15.50;;;;;;;24.40;19.06;99839.44;107934;1244;58650;-72
2022/03/30 11:08:36;;;;;;;21.60;14.90;;;;;;;24.38;19.29;99829.41;107811;1244;63873;-69
2022/03/30 11:11:30;;;;;;;21.30;15.30;;;;;;;24.41;18.96;99816.52;108005;1244;72259;-69
2022/03/30 11:14:36;;;;;;;21.10;14.50;;;;;;;24.32;19.27;99813.52;107795;1243;72046;-67
2022/03/30 11:17:15;;;;;;;23.80;15.60;;;;;;;24.67;19.16;99811.12;107893;1244;63666;-69
2022/03/30 11:19:47;;;;;;;22.00;13.00;;;;;;;24.85;19.01;99809.13;107900;1243;59673;-68
2022/03/30 11:22:32;;;;;;;19.80;13.90;;;;;;;25.14;17.89;99805.55;107859;1243;59567;-69
2022/03/30 11:25:20;;;;;;;19.90;12.40;;;;;;;25.25;17.46;99810.45;108048;1241;64082;-67
2022/03/30 11:27:58;;;;;;;16.10;12.30;;;;;;;25.39;16.78;99808.98;107980;1244;62742;-68
2022/03/30 11:30:36;;;;;;;17.00;12.00;;;;;;;25.18;16.70;99802.35;108128;1244;60008;-69
2022/03/30 11:34:32;;;;;;;18.20;12.20;;;;;;;24.85;17.37;99791.70;103981;1286;602113;-69
2022/03/30 11:37:03;;;;;;;13.70;10.80;;;;;;;25.05;17.05;99789.52;106452;1260;58458;-69
2022/03/30 11:39:34;;;;;;;14.60;11.10;;;;;;;25.24;16.31;99798.44;106673;1257;61250;-67
2022/03/30 11:42:03;;;;;;;15.80;11.50;;;;;;;24.72;17.01;99791.61;106691;1256;71247;-67